地図

経路データ

SID SEASON NUMBER BASIN SUBBASIN NAME ISO_TIME NATURE LAT LON WMO_WIND WMO_PRES WMO_AGENCY TRACK_TYPE DIST2LAND LANDFALL IFLAG USA_AGENCY USA_ATCF_ID USA_LAT USA_LON USA_RECORD USA_STATUS USA_WIND USA_PRES USA_SSHS USA_R34_NE USA_R34_SE USA_R34_SW USA_R34_NW USA_R50_NE USA_R50_SE USA_R50_SW USA_R50_NW USA_R64_NE USA_R64_SE USA_R64_SW USA_R64_NW USA_POCI USA_ROCI USA_RMW USA_EYE TOKYO_LAT TOKYO_LON TOKYO_GRADE TOKYO_WIND TOKYO_PRES TOKYO_R50_DIR TOKYO_R50_LONG TOKYO_R50_SHORT TOKYO_R30_DIR TOKYO_R30_LONG TOKYO_R30_SHORT TOKYO_LAND CMA_LAT CMA_LON CMA_CAT CMA_WIND CMA_PRES HKO_LAT HKO_LON HKO_CAT HKO_WIND HKO_PRES NEWDELHI_LAT NEWDELHI_LON NEWDELHI_GRADE NEWDELHI_WIND NEWDELHI_PRES NEWDELHI_CI NEWDELHI_DP NEWDELHI_POCI REUNION_LAT REUNION_LON REUNION_TYPE REUNION_WIND REUNION_PRES REUNION_TNUM REUNION_CI REUNION_RMW REUNION_R34_NE REUNION_R34_SE REUNION_R34_SW REUNION_R34_NW REUNION_R50_NE REUNION_R50_SE REUNION_R50_SW REUNION_R50_NW REUNION_R64_NE REUNION_R64_SE REUNION_R64_SW REUNION_R64_NW BOM_LAT BOM_LON BOM_TYPE BOM_WIND BOM_PRES BOM_TNUM BOM_CI BOM_RMW BOM_R34_NE BOM_R34_SE BOM_R34_SW BOM_R34_NW BOM_R50_NE BOM_R50_SE BOM_R50_SW BOM_R50_NW BOM_R64_NE BOM_R64_SE BOM_R64_SW BOM_R64_NW BOM_ROCI BOM_POCI BOM_EYE BOM_POS_METHOD BOM_PRES_METHOD NADI_LAT NADI_LON NADI_CAT NADI_WIND NADI_PRES WELLINGTON_LAT WELLINGTON_LON WELLINGTON_WIND WELLINGTON_PRES DS824_LAT DS824_LON DS824_STAGE DS824_WIND DS824_PRES TD9636_LAT TD9636_LON TD9636_STAGE TD9636_WIND TD9636_PRES TD9635_LAT TD9635_LON TD9635_WIND TD9635_PRES TD9635_ROCI NEUMANN_LAT NEUMANN_LON NEUMANN_CLASS NEUMANN_WIND NEUMANN_PRES MLC_LAT MLC_LON MLC_CLASS MLC_WIND MLC_PRES USA_GUST BOM_GUST BOM_GUST_PER REUNION_GUST REUNION_GUST_PER USA_SEAHGT USA_SEARAD_NE USA_SEARAD_SE USA_SEARAD_SW USA_SEARAD_NW STORM_SPEED STORM_DIR
1897285N11125 1897 39 WP MM NOT_NAMED 1897-10-12 04:00:00 NR 11.1000 124.600 main 0 0 __________O___ -1 11.1000 124.600 4 13 286
1897285N11125 1897 39 WP MM NOT_NAMED 1897-10-12 06:00:00 NR 11.2185 124.175 main 21 10 __________P___ -1 11.2185 124.175 4 13 286
1897285N11125 1897 39 WP MM NOT_NAMED 1897-10-12 09:00:00 NR 11.3949 123.533 main 43 0 __________P___ -1 11.3949 123.533 4 13 286
1897285N11125 1897 39 WP MM NOT_NAMED 1897-10-12 12:00:00 NR 11.5698 122.884 main 11 0 __________P___ -1 11.5698 122.884 4 13 285
1897285N11125 1897 39 WP MM NOT_NAMED 1897-10-12 15:00:00 NR 11.7428 122.224 main 0 0 __________P___ -1 11.7428 122.224 4 13 285
1897285N11125 1897 39 WP MM NOT_NAMED 1897-10-12 16:00:00 NR 11.8000 122.000 main 0 0 __________O___ -1 11.8000 122.000 4 14 284
1897285N11125 1897 39 WP MM NOT_NAMED 1897-10-12 18:00:00 NR 11.9139 121.548 main 34 15 __________P___ -1 11.9139 121.548 4 14 284
1897285N11125 1897 39 WP MM NOT_NAMED 1897-10-12 21:00:00 NR 12.0848 120.863 main 24 34 __________P___ -1 12.0848 120.863 4 14 284
1897285N11125 1897 39 WP MM NOT_NAMED 1897-10-13 00:00:00 NR 12.2586 120.181 main 79 88 __________P___ -1 12.2586 120.181 4 14 285
1897285N11125 1897 39 WP MM NOT_NAMED 1897-10-13 03:00:00 NR 12.4382 119.516 main 123 123 __________P___ -1 12.4382 119.516 4 13 286
1897285N11125 1897 39 WP MM NOT_NAMED 1897-10-13 04:00:00 NR 12.5000 119.300 main 136 136 __________O___ -1 12.5000 119.300 4 13 287
1897285N11125 1897 39 WP MM NOT_NAMED 1897-10-13 06:00:00 NR 12.6246 118.877 main 159 164 __________P___ -1 12.6246 118.877 4 13 287
1897285N11125 1897 39 WP MM NOT_NAMED 1897-10-13 09:00:00 NR 12.8181 118.263 main 212 219 __________P___ -1 12.8181 118.263 4 12 289
1897285N11125 1897 39 WP MM NOT_NAMED 1897-10-13 12:00:00 NR 13.0194 117.668 main 273 280 __________P___ -1 13.0194 117.668 4 12 290
1897285N11125 1897 39 WP MM NOT_NAMED 1897-10-13 15:00:00 NR 13.2286 117.089 main 335 335 __________P___ -1 13.2286 117.089 4 12 291
1897285N11125 1897 39 WP MM NOT_NAMED 1897-10-13 16:00:00 NR 13.3000 116.900 main 359 359 __________O___ -1 13.3000 116.900 4 12 292
1897285N11125 1897 39 WP MM NOT_NAMED 1897-10-13 18:00:00 NR 13.4410 116.540 main 400 407 __________P___ -1 13.4410 116.540 4 11 293
1897285N11125 1897 39 WP MM NOT_NAMED 1897-10-13 21:00:00 NR 13.6590 116.013 main 458 458 __________P___ -1 13.6590 116.013 4 11 293
1897285N11125 1897 39 WP MM NOT_NAMED 1897-10-14 00:00:00 NR 13.8853 115.477 main 502 512 __________P___ -1 13.8853 115.477 4 12 293
1897285N11125 1897 39 WP MM NOT_NAMED 1897-10-14 03:00:00 NR 14.1200 114.904 main 557 557 __________P___ -1 14.1200 114.904 4 12 293
1897285N11125 1897 39 WP MM NOT_NAMED 1897-10-14 04:00:00 NR 14.2000 114.700 main 573 541 __________O___ -1 14.2000 114.700 4 13 290
1897285N11125 1897 39 WP MM NOT_NAMED 1897-10-14 06:00:00 NR 14.3530 114.261 main 542 470 __________P___ -1 14.3530 114.261 4 14 289
1897285N11125 1897 39 WP MM NOT_NAMED 1897-10-14 09:00:00 NR 14.5886 113.560 main 470 390 __________P___ -1 14.5886 113.560 4 15 289
1897285N11125 1897 39 WP MM NOT_NAMED 1897-10-14 12:00:00 NR 14.8372 112.820 main 390 325 __________P___ -1 14.8372 112.820 4 15 290
1897285N11125 1897 39 WP MM NOT_NAMED 1897-10-14 15:00:00 NR 15.1052 112.057 main 325 295 __________P___ -1 15.1052 112.057 4 16 290
1897285N11125 1897 39 WP MM NOT_NAMED 1897-10-14 16:00:00 NR 15.2000 111.800 main 295 248 __________O___ -1 15.2000 111.800 4 16 292
1897285N11125 1897 39 WP MM NOT_NAMED 1897-10-14 18:00:00 NR 15.3986 111.286 main 248 180 __________P___ -1 15.3986 111.286 4 16 293
1897285N11125 1897 39 WP MM NOT_NAMED 1897-10-14 21:00:00 NR 15.7151 110.513 main 180 123 __________P___ -1 15.7151 110.513 4 16 294
1897285N11125 1897 39 WP MM NOT_NAMED 1897-10-15 00:00:00 NR 16.0470 109.738 main 123 81 __________P___ -1 16.0470 109.738 4 16 294
1897285N11125 1897 39 WP MM NOT_NAMED 1897-10-15 03:00:00 NR 16.3865 108.960 main 87 69 __________P___ -1 16.3865 108.960 4 16 294
1897285N11125 1897 39 WP MM NOT_NAMED 1897-10-15 04:00:00 NR 16.5000 108.700 main 70 __________O___ -1 16.5000 108.700 4 16 294

デジタル台風データ・検索

IBTrACS Databaseについて

本データベースは、米国NOAAが公開する1842年以降の世界の熱帯低気圧のベストトラックデータアーカイブInternational Best Track Archive for Climate Stewardship (IBTrACS)を、ウェブで閲覧しやすい形式に変換したものです。

最終更新日:2021-11-26